createdAt,value
2022-12-06T00:00:11.152Z,8.00
2022-12-06T00:02:58.662Z,8.00
2022-12-06T00:05:46.481Z,8.04
2022-12-06T00:08:32.682Z,8.03
2022-12-06T00:11:24.928Z,8.06
2022-12-06T00:14:12.304Z,8.07
2022-12-06T00:16:58.534Z,8.07
2022-12-06T00:19:44.162Z,8.07
2022-12-06T00:22:29.886Z,8.06
2022-12-06T00:25:15.794Z,8.06
2022-12-06T00:28:01.633Z,7.96
2022-12-06T00:30:47.623Z,7.98
2022-12-06T00:33:34.450Z,7.94
2022-12-06T00:36:23.500Z,7.92
2022-12-06T00:39:15.031Z,7.91
2022-12-06T00:42:00.690Z,7.84
2022-12-06T00:44:46.389Z,7.80
2022-12-06T00:47:32.137Z,7.83
2022-12-06T00:50:18.060Z,7.80
2022-12-06T00:53:04.098Z,7.84
2022-12-06T00:55:50.408Z,7.80
2022-12-06T00:58:36.086Z,7.84
2022-12-06T01:01:24.889Z,7.88
2022-12-06T01:04:10.788Z,7.87
2022-12-06T01:06:56.420Z,7.85
2022-12-06T01:09:42.651Z,7.86
2022-12-06T01:12:28.441Z,7.87
2022-12-06T01:15:14.214Z,7.84
2022-12-06T01:18:00.085Z,7.81
2022-12-06T01:20:45.813Z,7.93
2022-12-06T01:23:31.653Z,7.97
2022-12-06T01:26:20.060Z,7.98
2022-12-06T01:29:05.967Z,7.94
2022-12-06T01:31:52.110Z,7.91
2022-12-06T01:34:37.816Z,7.96
2022-12-06T01:37:24.161Z,7.97
2022-12-06T01:40:10.621Z,8.06
2022-12-06T01:42:56.381Z,8.09
2022-12-06T01:45:42.123Z,8.07
2022-12-06T01:48:27.910Z,8.12
2022-12-06T01:51:15.096Z,8.11
2022-12-06T01:54:02.367Z,8.16
2022-12-06T01:56:49.912Z,8.17
2022-12-06T01:59:36.204Z,8.17
2022-12-06T02:02:22.166Z,8.19
2022-12-06T02:05:08.389Z,8.19
2022-12-06T02:07:55.368Z,8.25
2022-12-06T02:10:41.545Z,8.30
2022-12-06T02:13:27.487Z,8.27
2022-12-06T02:16:36.184Z,8.33
2022-12-06T02:19:50.014Z,8.35
2022-12-06T02:23:17.418Z,8.33
2022-12-06T02:26:06.216Z,8.38
2022-12-06T02:29:07.372Z,8.37
2022-12-06T02:32:14.731Z,8.40
2022-12-06T02:35:12.046Z,8.40
2022-12-06T02:38:16.881Z,8.42
2022-12-06T02:41:08.761Z,8.42
2022-12-06T02:44:04.855Z,8.43
2022-12-06T02:46:51.312Z,8.48
2022-12-06T02:49:44.829Z,8.46
2022-12-06T02:52:32.103Z,8.49
2022-12-06T02:55:19.521Z,8.48
2022-12-06T02:58:05.669Z,8.45
2022-12-06T03:01:01.949Z,8.44
2022-12-06T03:03:51.620Z,8.47
2022-12-06T03:07:10.648Z,8.45
2022-12-06T03:10:09.020Z,8.41
2022-12-06T03:13:19.971Z,8.40
2022-12-06T03:16:22.244Z,8.40
2022-12-06T03:19:12.232Z,8.38
2022-12-06T03:22:03.050Z,8.41
2022-12-06T03:24:49.541Z,8.38
2022-12-06T03:27:36.043Z,8.42
2022-12-06T03:30:22.019Z,8.37
2022-12-06T03:33:08.241Z,8.38
2022-12-06T03:35:54.929Z,8.37
2022-12-06T03:38:55.753Z,8.38
2022-12-06T03:41:48.030Z,8.39
2022-12-06T03:44:34.866Z,8.40
2022-12-06T03:47:57.656Z,8.37
2022-12-06T03:50:55.449Z,8.35
2022-12-06T03:53:49.563Z,8.38
2022-12-06T03:56:37.491Z,8.36
2022-12-06T03:59:23.471Z,8.37
2022-12-06T04:02:09.344Z,8.34
2022-12-06T04:04:55.295Z,8.38
2022-12-06T04:07:41.288Z,8.37
2022-12-06T04:10:27.488Z,8.34
2022-12-06T04:13:18.154Z,8.35
2022-12-06T04:16:25.802Z,8.37
2022-12-06T04:19:11.920Z,8.36
2022-12-06T04:22:16.577Z,8.35
2022-12-06T04:25:02.627Z,8.31
2022-12-06T04:28:06.853Z,8.31
2022-12-06T04:31:11.466Z,8.31
2022-12-06T04:34:16.080Z,8.30
2022-12-06T04:37:21.240Z,8.24
2022-12-06T04:40:08.026Z,8.31
2022-12-06T04:43:14.393Z,8.33
2022-12-06T04:46:00.403Z,8.37
2022-12-06T04:48:46.478Z,8.40
2022-12-06T04:51:33.073Z,8.41
2022-12-06T04:54:19.850Z,8.39
2022-12-06T04:57:11.292Z,8.46
2022-12-06T04:59:57.561Z,8.45
2022-12-06T05:02:43.685Z,8.45
2022-12-06T05:05:29.586Z,8.46
2022-12-06T05:08:15.755Z,8.47
2022-12-06T05:11:01.613Z,8.46
2022-12-06T05:13:47.953Z,8.46
2022-12-06T05:16:37.292Z,8.44
2022-12-06T05:19:23.139Z,8.49
2022-12-06T05:22:08.979Z,8.48
2022-12-06T05:24:55.051Z,8.46
2022-12-06T05:27:41.144Z,8.40
2022-12-06T05:30:27.228Z,8.41
2022-12-06T05:33:13.324Z,8.44
2022-12-06T05:35:59.279Z,8.42
2022-12-06T05:38:51.137Z,8.45
2022-12-06T05:41:40.044Z,8.48
2022-12-06T05:44:25.868Z,8.44
2022-12-06T05:47:11.692Z,8.46
2022-12-06T05:49:57.892Z,8.43
2022-12-06T05:52:43.815Z,8.41
2022-12-06T05:55:30.178Z,8.40
2022-12-06T05:58:17.072Z,8.39
2022-12-06T06:01:03.029Z,8.37
2022-12-06T06:03:49.238Z,8.37
2022-12-06T06:06:35.236Z,8.40
2022-12-06T06:09:21.441Z,8.44
2022-12-06T06:12:12.236Z,8.44
2022-12-06T06:14:58.801Z,8.49
2022-12-06T06:17:44.896Z,8.53
2022-12-06T06:20:31.004Z,8.53
2022-12-06T06:23:17.185Z,8.52
2022-12-06T06:26:09.715Z,8.48
2022-12-06T06:28:55.849Z,8.52
2022-12-06T06:31:41.842Z,8.51
2022-12-06T06:34:28.079Z,8.53
2022-12-06T06:37:14.071Z,8.53
2022-12-06T06:40:00.894Z,8.53
2022-12-06T06:42:47.393Z,8.52
2022-12-06T06:45:33.390Z,8.51
2022-12-06T06:48:19.467Z,8.55
2022-12-06T06:51:12.378Z,8.56
2022-12-06T06:54:00.116Z,8.59
2022-12-06T06:56:50.090Z,8.58
2022-12-06T06:59:35.737Z,8.60
2022-12-06T07:02:21.965Z,8.57
2022-12-06T07:05:08.001Z,8.61
2022-12-06T07:07:54.612Z,8.65
2022-12-06T07:10:40.847Z,8.66
2022-12-06T07:13:27.535Z,8.69
2022-12-06T07:16:15.931Z,8.73
2022-12-06T07:19:04.736Z,8.79
2022-12-06T07:21:54.786Z,8.83
2022-12-06T07:24:43.625Z,8.90
2022-12-06T07:27:36.854Z,8.95
2022-12-06T07:30:27.416Z,9.00
2022-12-06T07:33:13.603Z,9.01
2022-12-06T07:36:14.711Z,9.04
2022-12-06T07:39:06.816Z,9.08
2022-12-06T07:42:14.226Z,9.08
2022-12-06T07:45:09.495Z,9.06
2022-12-06T07:47:55.508Z,9.11
2022-12-06T07:50:42.553Z,9.12
2022-12-06T07:53:28.351Z,9.13
2022-12-06T07:56:14.273Z,9.18
2022-12-06T07:59:01.003Z,9.26
2022-12-06T08:01:46.905Z,9.30
2022-12-06T08:04:33.525Z,9.36
2022-12-06T08:07:20.173Z,9.44
2022-12-06T08:10:06.833Z,9.44
2022-12-06T08:12:53.189Z,9.48
2022-12-06T08:15:42.199Z,9.48
2022-12-06T08:18:28.452Z,9.48
2022-12-06T08:21:16.167Z,9.44
2022-12-06T08:24:04.268Z,9.43
2022-12-06T08:26:50.509Z,9.44
2022-12-06T08:29:36.430Z,9.41
2022-12-06T08:32:22.383Z,9.39
2022-12-06T08:35:08.590Z,9.37
2022-12-06T08:37:54.304Z,9.32
2022-12-06T08:40:39.853Z,9.29
2022-12-06T08:43:25.606Z,9.31
2022-12-06T08:46:11.455Z,9.23
2022-12-06T08:48:57.601Z,9.24
2022-12-06T08:51:43.642Z,9.22
2022-12-06T08:54:30.691Z,9.21
2022-12-06T08:57:16.704Z,9.23
2022-12-06T09:00:03.811Z,9.22
2022-12-06T09:02:49.952Z,9.22
2022-12-06T09:05:35.815Z,9.25
2022-12-06T09:08:21.507Z,9.24
2022-12-06T09:11:08.767Z,9.23
2022-12-06T09:13:54.918Z,9.30
2022-12-06T09:16:42.795Z,9.33
2022-12-06T09:19:28.699Z,9.37
2022-12-06T09:22:14.342Z,9.40
2022-12-06T09:25:00.137Z,9.43
2022-12-06T09:27:46.296Z,9.46
2022-12-06T09:30:32.480Z,9.50
2022-12-06T09:33:18.452Z,9.48
2022-12-06T09:36:18.581Z,9.53
2022-12-06T09:39:16.889Z,9.55
2022-12-06T09:42:18.971Z,9.58
2022-12-06T09:45:23.661Z,9.59
2022-12-06T09:48:24.495Z,9.60
2022-12-06T09:51:21.004Z,9.60
2022-12-06T09:54:33.825Z,9.60
2022-12-06T09:57:33.334Z,9.62
2022-12-06T10:00:23.143Z,9.65
2022-12-06T10:03:18.548Z,9.73
2022-12-06T10:06:09.537Z,9.76
2022-12-06T10:09:20.281Z,9.73
2022-12-06T10:12:27.561Z,9.84
2022-12-06T10:15:24.803Z,9.87
2022-12-06T10:18:37.077Z,9.97
2022-12-06T10:21:47.070Z,10.04
2022-12-06T10:24:35.983Z,10.13
2022-12-06T10:27:37.876Z,10.19
2022-12-06T10:30:30.795Z,10.24
2022-12-06T10:33:25.470Z,10.27
2022-12-06T10:36:13.303Z,10.31
2022-12-06T10:39:14.237Z,10.34
2022-12-06T10:42:10.069Z,10.31
2022-12-06T10:45:58.013Z,10.32
2022-12-06T10:49:00.554Z,10.34
2022-12-06T10:52:08.185Z,10.36
2022-12-06T10:55:09.213Z,10.44
2022-12-06T10:58:22.798Z,10.49
2022-12-06T11:01:22.522Z,10.54
2022-12-06T11:04:12.675Z,10.58
2022-12-06T11:07:08.691Z,10.62
2022-12-06T11:09:56.688Z,10.68
2022-12-06T11:12:42.951Z,10.79
2022-12-06T11:15:37.044Z,10.83
2022-12-06T11:18:23.112Z,10.95
2022-12-06T11:21:36.348Z,11.16
2022-12-06T11:24:37.012Z,11.42
2022-12-06T11:27:53.474Z,11.63
2022-12-06T11:30:39.124Z,11.76
2022-12-06T11:33:33.093Z,11.79
2022-12-06T11:36:20.611Z,11.83
2022-12-06T11:39:06.584Z,11.80
2022-12-06T11:41:57.705Z,11.82
2022-12-06T11:44:50.401Z,11.82
2022-12-06T11:47:36.109Z,11.84
2022-12-06T11:50:22.895Z,11.91
2022-12-06T11:53:25.446Z,11.90
2022-12-06T11:56:25.160Z,11.88
2022-12-06T11:59:14.066Z,11.81
2022-12-06T12:02:02.695Z,11.76
2022-12-06T12:04:49.702Z,11.71
2022-12-06T12:07:36.203Z,11.66
2022-12-06T12:10:43.350Z,11.60
2022-12-06T12:13:45.809Z,11.52
2022-12-06T12:16:37.553Z,11.44
2022-12-06T12:19:38.080Z,11.41
2022-12-06T12:22:28.297Z,11.36
2022-12-06T12:25:22.603Z,11.29
2022-12-06T12:28:26.769Z,11.23
2022-12-06T12:31:23.531Z,11.20
2022-12-06T12:34:42.782Z,11.17
2022-12-06T12:37:29.257Z,11.15
2022-12-06T12:40:29.712Z,11.11
2022-12-06T12:43:20.644Z,11.09
2022-12-06T12:46:09.667Z,11.09
2022-12-06T12:49:14.979Z,11.06
2022-12-06T12:52:04.122Z,11.08
2022-12-06T12:55:24.701Z,11.07
2022-12-06T12:58:11.636Z,11.03
2022-12-06T13:01:01.587Z,11.02
2022-12-06T13:03:51.469Z,11.05
2022-12-06T13:06:58.612Z,11.02
2022-12-06T13:10:06.129Z,10.99
2022-12-06T13:13:05.555Z,10.98
2022-12-06T13:15:54.358Z,10.94
2022-12-06T13:18:51.519Z,10.92
2022-12-06T13:21:41.380Z,10.88
2022-12-06T13:24:31.376Z,10.88
2022-12-06T13:27:19.939Z,10.87
2022-12-06T13:30:13.987Z,10.85
2022-12-06T13:33:07.247Z,10.85
2022-12-06T13:36:14.500Z,10.84
2022-12-06T13:39:36.003Z,10.84
2022-12-06T13:42:37.400Z,10.82
2022-12-06T13:45:45.305Z,10.81
2022-12-06T13:48:56.950Z,10.78
2022-12-06T13:51:43.382Z,10.80
2022-12-06T13:54:31.529Z,10.79
2022-12-06T13:57:23.570Z,10.79
2022-12-06T14:00:31.376Z,10.81
2022-12-06T14:03:17.243Z,10.81
2022-12-06T14:06:13.948Z,10.82
2022-12-06T14:09:02.084Z,10.79
2022-12-06T14:11:48.102Z,10.77
2022-12-06T14:14:34.019Z,10.79
2022-12-06T14:17:38.419Z,10.81
2022-12-06T14:20:28.116Z,10.80
2022-12-06T14:23:31.473Z,10.79
2022-12-06T14:26:29.308Z,10.80
2022-12-06T14:29:22.016Z,10.81
2022-12-06T14:32:08.088Z,10.77
2022-12-06T14:35:02.313Z,10.80
2022-12-06T14:37:53.852Z,10.79
2022-12-06T14:41:02.214Z,10.75
2022-12-06T14:43:48.237Z,10.73
2022-12-06T14:46:34.370Z,10.73
2022-12-06T14:49:56.936Z,10.73
2022-12-06T14:53:12.488Z,10.72
2022-12-06T14:56:32.276Z,10.70
2022-12-06T14:59:47.431Z,10.69
2022-12-06T15:02:29.594Z,10.69
2022-12-06T15:05:44.855Z,10.69
2022-12-06T15:08:33.569Z,10.66
2022-12-06T15:11:38.284Z,10.68
2022-12-06T15:14:29.764Z,10.66
2022-12-06T15:17:21.209Z,10.68
2022-12-06T15:20:14.825Z,10.64
2022-12-06T15:23:00.792Z,10.62
2022-12-06T15:25:47.182Z,10.67
2022-12-06T15:28:35.888Z,10.65
2022-12-06T15:31:27.247Z,10.66
2022-12-06T15:34:22.293Z,10.65
2022-12-06T15:37:37.559Z,10.65
2022-12-06T15:40:16.766Z,10.62
2022-12-06T15:43:03.404Z,10.57
2022-12-06T15:45:49.446Z,10.60
2022-12-06T15:48:36.580Z,10.57
2022-12-06T15:51:26.411Z,10.56
2022-12-06T15:54:21.643Z,10.54
2022-12-06T15:57:07.639Z,10.47
2022-12-06T15:59:53.639Z,10.54
2022-12-06T16:02:39.575Z,10.54
2022-12-06T16:05:26.215Z,10.52
2022-12-06T16:08:12.446Z,10.56
2022-12-06T16:11:15.071Z,10.62
2022-12-06T16:14:02.075Z,10.61
2022-12-06T16:16:49.420Z,10.62
2022-12-06T16:19:56.402Z,10.39
